La Mesa, New Mexico
Current Conditions -  °F | °C
As of 6:35 PM on Monday 24 Nov 2014 (Local Time) from KLRU Reporting Station
Clear Clear  
Wind Chill: 42°   Ceiling: Unl
Heat Index: 49°   Visibility: 10mi
Dew Point: -2°   Wind: 23mph
Humidity: 12%   Direction: 360°N
Pressure: 30.13"   Gusts: 33mph
Location:  32.12°N, 106.71°W
Report Text: KLRU 250135Z AUTO 36020G29KT 10SM CLR 10/M19 A3013 RMK AO2 T00971190
Loading
Personal Weather Stations






























Interactive Weather Map New forecast layout! Learn more

10-Day Weather Forecast

Advertisements
Track Severe Weather on mobile